Strona główna
METAR-TAF:

METAR-TAF

Lotnisko :

Vlissingen, Holandia

Szerokość geograficzna: 51-27N, Długość geograficzna: 3-36E, wysokość: 10 m

Aktualna obserwacja pogody

Raport powstał 27 minut temu, godzina 03:55 UTC
Wiatr 10 kt od zachodnio-południowy zachód
Temperatura 16°C
Wilgotność 94%
Ciśnienie 1017 hPa
Widzialność: 8000 m

METAR: EHFS 210355Z AUTO 25010KT 8000 FEW042/// SCT049/// 16/15 Q1017 W///H///

czas: 06:22 (04:22 UTC)


TAF: brakujący

Obserwacja i prognoza pogody dla ponad 4000 lotnisk (raport METAR i TAF).

Dostępne stacje oznaczono żółtymi i czerwonymi punktami na mapie.

Najedź kursorem aby zobaczyć nazwę stacji.

Kliknij aby zobaczyć obserwacje i prognozy pogody.

Aby zmienić mapę: kliknij na zielony przycisk z czarnym krzyżykiem, aby powiększyć; na zielony przycisk z myślnikiem, aby pomniejszyć; na zielone strzałki, aby przejść do map sąsiednich.


METAR-TAF: